createdAt,value
2022-11-26T00:02:15.937Z,3.97
2022-11-26T00:05:28.936Z,3.98
2022-11-26T00:08:41.791Z,4.04
2022-11-26T00:11:53.679Z,4.09
2022-11-26T00:15:06.243Z,4.12
2022-11-26T00:18:18.017Z,4.16
2022-11-26T00:21:32.373Z,4.18
2022-11-26T00:24:44.170Z,4.18
2022-11-26T00:27:58.715Z,4.22
2022-11-26T00:31:16.101Z,4.27
2022-11-26T00:34:27.982Z,4.30
2022-11-26T00:37:44.484Z,4.31
2022-11-26T00:40:56.531Z,4.34
2022-11-26T00:44:09.319Z,4.32
2022-11-26T00:47:23.908Z,4.27
2022-11-26T00:50:41.264Z,4.27
2022-11-26T00:53:54.235Z,4.28
2022-11-26T00:57:06.057Z,4.29
2022-11-26T01:00:26.404Z,4.33
2022-11-26T01:03:38.088Z,4.33
2022-11-26T01:06:51.515Z,4.33
2022-11-26T01:10:03.071Z,4.35
2022-11-26T01:13:18.196Z,4.36
2022-11-26T01:16:32.548Z,4.38
2022-11-26T01:19:44.202Z,4.42
2022-11-26T01:22:56.470Z,4.47
2022-11-26T01:26:08.266Z,4.49
2022-11-26T01:29:24.912Z,4.49
2022-11-26T01:32:36.758Z,4.52
2022-11-26T01:35:48.506Z,4.56
2022-11-26T01:39:02.574Z,4.56
2022-11-26T01:42:24.182Z,4.58
2022-11-26T01:45:36.343Z,4.61
2022-11-26T01:48:48.563Z,4.60
2022-11-26T01:52:07.255Z,4.59
2022-11-26T01:55:22.012Z,4.58
2022-11-26T01:58:40.186Z,4.56
2022-11-26T02:01:53.282Z,4.54
2022-11-26T02:05:09.661Z,4.52
2022-11-26T02:08:21.445Z,4.52
2022-11-26T02:11:33.158Z,4.51
2022-11-26T02:14:48.040Z,4.47
2022-11-26T02:18:05.294Z,4.43
2022-11-26T02:21:22.948Z,4.42
2022-11-26T02:24:47.798Z,4.42
2022-11-26T02:28:21.790Z,4.44
2022-11-26T02:31:39.228Z,4.46
2022-11-26T02:34:56.983Z,4.48
2022-11-26T02:38:13.111Z,4.51
2022-11-26T02:41:25.049Z,4.55
2022-11-26T02:44:42.361Z,4.57
2022-11-26T02:47:58.608Z,4.52
2022-11-26T02:51:14.946Z,4.59
2022-11-26T02:54:28.615Z,4.59
2022-11-26T02:57:45.914Z,4.62
2022-11-26T03:00:59.986Z,4.61
2022-11-26T03:04:16.054Z,4.61
2022-11-26T03:07:28.908Z,4.59
2022-11-26T03:10:40.970Z,4.59
2022-11-26T03:13:53.483Z,4.59
2022-11-26T03:17:05.180Z,4.62
2022-11-26T03:20:17.589Z,4.60
2022-11-26T03:23:29.138Z,4.59
2022-11-26T03:26:40.980Z,4.58
2022-11-26T03:29:52.444Z,4.61
2022-11-26T03:33:04.072Z,4.63
2022-11-26T03:36:16.671Z,4.66
2022-11-26T03:39:28.526Z,4.67
2022-11-26T03:42:40.367Z,4.69
2022-11-26T03:45:52.195Z,4.68
2022-11-26T03:49:03.975Z,4.72
2022-11-26T03:52:15.920Z,4.71
2022-11-26T03:55:27.517Z,4.74
2022-11-26T03:58:39.460Z,4.74
2022-11-26T04:01:52.152Z,4.74
2022-11-26T04:05:04.452Z,4.74
2022-11-26T04:08:16.337Z,4.72
2022-11-26T04:11:28.155Z,4.73
2022-11-26T04:14:39.935Z,4.76
2022-11-26T04:17:51.776Z,4.77
2022-11-26T04:21:04.570Z,4.79
2022-11-26T04:24:19.129Z,4.79
2022-11-26T04:27:30.959Z,4.81
2022-11-26T04:30:42.474Z,4.81
2022-11-26T04:33:54.401Z,4.81
2022-11-26T04:37:06.808Z,4.78
2022-11-26T04:40:20.964Z,4.73
2022-11-26T04:43:32.769Z,4.70
2022-11-26T04:46:44.504Z,4.68
2022-11-26T04:49:56.204Z,4.66
2022-11-26T04:53:07.836Z,4.63
2022-11-26T04:56:19.522Z,4.64
2022-11-26T04:59:31.497Z,4.64
2022-11-26T05:02:43.203Z,4.65
2022-11-26T05:05:55.008Z,4.65
2022-11-26T05:09:07.087Z,4.64
2022-11-26T05:12:18.614Z,4.62
2022-11-26T05:15:30.496Z,4.60
2022-11-26T05:18:42.199Z,4.59
2022-11-26T05:21:53.765Z,4.55
2022-11-26T05:25:05.574Z,4.54
2022-11-26T05:28:17.247Z,4.50
2022-11-26T05:31:30.362Z,4.47
2022-11-26T05:34:41.983Z,4.40
2022-11-26T05:37:53.584Z,4.39
2022-11-26T05:41:05.232Z,4.37
2022-11-26T05:44:16.902Z,4.36
2022-11-26T05:47:28.512Z,4.35
2022-11-26T05:50:41.497Z,4.34
2022-11-26T05:53:53.226Z,4.32
2022-11-26T05:57:04.854Z,4.30
2022-11-26T06:00:21.314Z,4.25
2022-11-26T06:03:33.008Z,4.17
2022-11-26T06:06:44.730Z,4.13
2022-11-26T06:09:56.369Z,4.08
2022-11-26T06:13:08.035Z,4.04
2022-11-26T06:16:20.843Z,4.00
2022-11-26T06:19:33.114Z,3.97
2022-11-26T06:22:47.088Z,3.94
2022-11-26T06:25:58.813Z,3.93
2022-11-26T06:29:10.917Z,3.91
2022-11-26T06:32:22.538Z,3.89
2022-11-26T06:35:34.499Z,3.87
2022-11-26T06:38:46.376Z,3.90
2022-11-26T06:41:57.997Z,3.93
2022-11-26T06:45:10.822Z,3.96
2022-11-26T06:48:22.512Z,4.01
2022-11-26T06:51:34.530Z,4.04
2022-11-26T06:54:46.742Z,4.10
2022-11-26T06:57:58.961Z,4.20
2022-11-26T07:01:17.855Z,4.31
2022-11-26T07:04:29.540Z,4.44
2022-11-26T07:07:44.186Z,4.58
2022-11-26T07:10:55.942Z,4.73
2022-11-26T07:14:08.176Z,4.82
2022-11-26T07:17:19.803Z,4.96
2022-11-26T07:20:32.061Z,5.06
2022-11-26T07:23:44.584Z,5.17
2022-11-26T07:26:56.215Z,5.27
2022-11-26T07:30:08.264Z,5.37
2022-11-26T07:33:19.874Z,5.49
2022-11-26T07:36:34.433Z,5.60
2022-11-26T07:39:46.222Z,5.63
2022-11-26T07:42:57.921Z,5.72
2022-11-26T07:46:13.042Z,5.71
2022-11-26T07:49:24.790Z,5.75
2022-11-26T07:52:36.533Z,5.70
2022-11-26T07:55:48.445Z,5.65
2022-11-26T07:59:00.378Z,5.74
2022-11-26T08:02:13.158Z,5.73
2022-11-26T08:05:27.720Z,5.80
2022-11-26T08:08:41.007Z,5.85
2022-11-26T08:11:52.616Z,5.81
2022-11-26T08:15:04.173Z,5.84
2022-11-26T08:18:15.775Z,5.78
2022-11-26T08:21:27.868Z,5.74
2022-11-26T08:24:40.347Z,5.71
2022-11-26T08:27:52.699Z,5.64
2022-11-26T08:31:12.056Z,5.59
2022-11-26T08:34:24.251Z,5.56
2022-11-26T08:37:36.127Z,5.55
2022-11-26T08:40:47.877Z,5.52
2022-11-26T08:44:08.069Z,5.51
2022-11-26T08:47:13.621Z,5.55
2022-11-26T08:50:25.732Z,5.55
2022-11-26T08:53:40.294Z,5.50
2022-11-26T08:56:52.086Z,5.49
2022-11-26T09:00:05.484Z,5.55
2022-11-26T09:03:17.265Z,5.55
2022-11-26T09:06:32.901Z,5.55
2022-11-26T09:09:44.709Z,5.54
2022-11-26T09:12:56.711Z,5.61
2022-11-26T09:16:08.838Z,5.63
2022-11-26T09:19:22.491Z,5.72
2022-11-26T09:22:34.610Z,5.74
2022-11-26T09:25:46.990Z,5.77
2022-11-26T09:28:59.384Z,5.78
2022-11-26T09:32:32.468Z,5.91
2022-11-26T09:35:25.954Z,5.94
2022-11-26T09:38:37.969Z,5.94
2022-11-26T09:41:56.102Z,5.97
2022-11-26T09:45:25.500Z,6.00
2022-11-26T09:48:39.889Z,5.91
2022-11-26T09:51:55.911Z,5.81
2022-11-26T09:55:17.473Z,5.82
2022-11-26T09:58:34.151Z,5.87
2022-11-26T10:01:48.013Z,5.92
2022-11-26T10:05:00.141Z,5.94
2022-11-26T10:08:24.235Z,6.01
2022-11-26T10:11:44.332Z,6.07
2022-11-26T10:15:04.320Z,6.05
2022-11-26T10:18:23.106Z,6.06
2022-11-26T10:21:58.189Z,6.13
2022-11-26T10:24:55.759Z,6.05
2022-11-26T10:28:12.889Z,6.01
2022-11-26T10:31:26.619Z,6.01
2022-11-26T10:34:43.649Z,5.94
2022-11-26T10:37:56.509Z,5.98
2022-11-26T10:41:08.205Z,5.99
2022-11-26T10:44:46.828Z,5.94
2022-11-26T10:47:58.934Z,5.94
2022-11-26T10:51:17.653Z,5.92
2022-11-26T10:54:38.254Z,5.98
2022-11-26T10:57:55.968Z,6.07
2022-11-26T11:01:12.606Z,6.14
2022-11-26T11:04:33.688Z,6.22
2022-11-26T11:07:51.174Z,6.24
2022-11-26T11:11:05.432Z,6.29
2022-11-26T11:14:27.727Z,6.28
2022-11-26T11:17:42.834Z,6.32
2022-11-26T11:21:03.491Z,6.30
2022-11-26T11:24:20.764Z,6.28
2022-11-26T11:27:37.539Z,6.28
2022-11-26T11:30:50.511Z,6.20
2022-11-26T11:34:19.983Z,6.20
2022-11-26T11:37:31.881Z,6.21
2022-11-26T11:40:47.860Z,6.20
2022-11-26T11:44:04.624Z,6.21
2022-11-26T11:47:38.948Z,6.22
2022-11-26T11:50:55.766Z,6.20
2022-11-26T11:54:19.949Z,6.20
2022-11-26T11:57:53.269Z,6.19
2022-11-26T12:01:11.024Z,6.22
2022-11-26T12:04:47.164Z,6.27
2022-11-26T12:08:05.813Z,6.24
2022-11-26T12:11:40.563Z,6.24
2022-11-26T12:14:57.112Z,6.27
2022-11-26T12:18:16.407Z,6.30
2022-11-26T12:21:35.528Z,6.33
2022-11-26T12:24:53.786Z,6.42
2022-11-26T12:28:11.426Z,6.40
2022-11-26T12:31:29.293Z,6.40
2022-11-26T12:34:46.721Z,6.44
2022-11-26T12:38:05.111Z,6.44
2022-11-26T12:41:21.383Z,6.49
2022-11-26T12:44:40.634Z,6.52
2022-11-26T12:47:59.778Z,6.54
2022-11-26T12:51:20.810Z,6.54
2022-11-26T12:54:38.358Z,6.61
2022-11-26T12:57:55.638Z,6.59
2022-11-26T13:01:05.985Z,6.57
2022-11-26T13:07:49.082Z,6.54
2022-11-26T13:11:26.225Z,6.52
2022-11-26T13:14:42.643Z,6.49
2022-11-26T13:17:56.175Z,6.54
2022-11-26T13:21:27.254Z,6.53
2022-11-26T13:25:02.291Z,6.51
2022-11-26T13:28:25.739Z,6.53
2022-11-26T13:31:54.495Z,6.55
2022-11-26T13:35:20.673Z,6.57
2022-11-26T13:38:41.028Z,6.58
2022-11-26T13:42:17.733Z,6.55
2022-11-26T13:46:05.764Z,6.56
2022-11-26T13:49:22.659Z,6.54
2022-11-26T13:52:40.656Z,6.55
2022-11-26T13:55:58.002Z,6.53
2022-11-26T13:59:16.181Z,6.51
2022-11-26T14:02:47.586Z,6.48
2022-11-26T14:06:16.210Z,6.45
2022-11-26T14:09:56.239Z,6.40
2022-11-26T14:13:24.505Z,6.40
2022-11-26T14:16:52.749Z,6.43
2022-11-26T14:20:17.632Z,6.45
2022-11-26T14:23:53.159Z,6.43
2022-11-26T14:27:05.225Z,6.39
2022-11-26T14:30:28.953Z,6.38
2022-11-26T14:33:43.061Z,6.33
2022-11-26T14:37:03.725Z,6.33
2022-11-26T14:40:29.408Z,6.34
2022-11-26T14:43:41.403Z,6.32
2022-11-26T14:46:57.039Z,6.31
2022-11-26T14:50:15.079Z,6.33
2022-11-26T14:53:29.877Z,6.36
2022-11-26T14:56:46.405Z,6.35
2022-11-26T15:00:08.388Z,6.34
2022-11-26T15:03:31.553Z,6.34
2022-11-26T15:06:49.106Z,6.32
2022-11-26T15:10:14.696Z,6.31
2022-11-26T15:13:32.541Z,6.31
2022-11-26T15:16:47.862Z,6.33
2022-11-26T15:20:02.228Z,6.33
2022-11-26T15:23:19.343Z,6.33
2022-11-26T15:26:36.540Z,6.33
2022-11-26T15:29:57.485Z,6.27
2022-11-26T15:33:15.342Z,6.37
2022-11-26T15:36:27.207Z,6.38
2022-11-26T15:39:39.210Z,6.36
2022-11-26T15:42:54.208Z,6.38
2022-11-26T15:46:08.981Z,6.38
2022-11-26T15:49:29.152Z,6.39
2022-11-26T15:52:43.078Z,6.40
2022-11-26T15:55:55.790Z,6.40
2022-11-26T15:59:13.658Z,6.43
2022-11-26T16:02:28.990Z,6.47
2022-11-26T16:05:44.255Z,6.46
2022-11-26T16:09:17.886Z,6.45
2022-11-26T16:12:40.851Z,6.44
2022-11-26T16:15:58.643Z,6.42
2022-11-26T16:19:15.655Z,6.41
2022-11-26T16:22:30.677Z,6.42
2022-11-26T16:25:42.470Z,6.41
2022-11-26T16:28:54.459Z,6.43
2022-11-26T16:32:08.036Z,6.42
2022-11-26T16:35:44.095Z,6.43
2022-11-26T16:38:34.709Z,6.44
2022-11-26T16:41:46.784Z,6.43
2022-11-26T16:48:19.548Z,6.43
2022-11-26T16:51:31.344Z,6.44
2022-11-26T16:54:43.315Z,6.44
2022-11-26T16:57:58.306Z,6.40
2022-11-26T17:01:10.479Z,6.40
2022-11-26T17:04:22.766Z,6.41
2022-11-26T17:07:40.558Z,6.39
2022-11-26T17:10:54.037Z,6.36
2022-11-26T17:14:05.682Z,6.37
2022-11-26T17:17:23.858Z,6.36
2022-11-26T17:20:35.722Z,6.36
2022-11-26T17:23:47.615Z,6.35
2022-11-26T17:26:59.313Z,6.32
2022-11-26T17:30:14.965Z,6.30
2022-11-26T17:33:28.367Z,6.26
2022-11-26T17:36:42.337Z,6.23
2022-11-26T17:39:54.512Z,6.18
2022-11-26T17:43:06.341Z,6.21
2022-11-26T17:46:24.022Z,6.25
2022-11-26T17:49:35.926Z,6.16
2022-11-26T17:52:48.587Z,6.17
2022-11-26T17:56:00.426Z,6.17
2022-11-26T17:59:15.523Z,6.08
2022-11-26T18:02:26.145Z,5.90
2022-11-26T18:05:41.987Z,5.88
2022-11-26T18:08:52.894Z,5.94
2022-11-26T18:12:05.661Z,5.88
2022-11-26T18:15:25.666Z,5.92
2022-11-26T18:18:37.495Z,5.98
2022-11-26T18:21:50.102Z,5.98
2022-11-26T18:25:02.062Z,6.02
2022-11-26T18:28:16.304Z,6.02
2022-11-26T18:31:28.658Z,5.93
2022-11-26T18:34:40.928Z,5.92
2022-11-26T18:37:52.624Z,5.95
2022-11-26T18:41:08.497Z,5.94
2022-11-26T18:44:20.338Z,5.94
2022-11-26T18:47:35.374Z,5.95
2022-11-26T18:50:47.123Z,5.95
2022-11-26T18:53:59.064Z,5.93
2022-11-26T18:57:10.821Z,5.82
2022-11-26T19:00:24.424Z,5.73
2022-11-26T19:03:38.691Z,5.69
2022-11-26T19:06:49.998Z,5.69
2022-11-26T19:10:01.808Z,5.65
2022-11-26T19:13:13.770Z,5.67
2022-11-26T19:16:27.901Z,5.67
2022-11-26T19:19:40.573Z,5.65
2022-11-26T19:22:52.861Z,5.69
2022-11-26T19:26:06.859Z,5.71
2022-11-26T19:29:19.604Z,5.72
2022-11-26T19:32:32.728Z,5.75
2022-11-26T19:35:47.401Z,5.75
2022-11-26T19:39:04.302Z,5.72
2022-11-26T19:42:16.477Z,5.68
2022-11-26T19:45:29.202Z,5.66
2022-11-26T19:48:43.737Z,5.66
2022-11-26T19:51:55.614Z,5.61
2022-11-26T19:55:07.958Z,5.58
2022-11-26T19:58:19.803Z,5.56
2022-11-26T20:01:34.383Z,5.38
2022-11-26T20:04:46.582Z,5.34
2022-11-26T20:07:58.386Z,5.35
2022-11-26T20:11:12.329Z,5.27
2022-11-26T20:14:24.374Z,5.24
2022-11-26T20:17:36.178Z,5.19
2022-11-26T20:20:48.873Z,5.21
2022-11-26T20:24:04.402Z,5.29
2022-11-26T20:27:16.267Z,5.31
2022-11-26T20:30:28.704Z,5.31
2022-11-26T20:33:42.326Z,5.32
2022-11-26T20:36:54.890Z,5.31
2022-11-26T20:40:07.099Z,5.29
2022-11-26T20:43:19.029Z,5.26
2022-11-26T20:46:31.733Z,5.27
2022-11-26T20:49:43.802Z,5.27
2022-11-26T20:52:55.718Z,5.23
2022-11-26T20:56:08.527Z,5.27
2022-11-26T20:59:20.299Z,5.29
2022-11-26T21:02:33.155Z,5.27
2022-11-26T21:05:45.639Z,5.28
2022-11-26T21:08:57.492Z,5.26
2022-11-26T21:12:10.705Z,5.25
2022-11-26T21:15:23.766Z,5.24
2022-11-26T21:18:35.979Z,5.20
2022-11-26T21:21:47.719Z,5.19
2022-11-26T21:24:59.719Z,5.17
2022-11-26T21:28:15.072Z,5.16
2022-11-26T21:31:28.324Z,5.16
2022-11-26T21:34:41.065Z,5.13
2022-11-26T21:37:52.789Z,5.11
2022-11-26T21:41:11.681Z,5.13
2022-11-26T21:44:23.747Z,5.05
2022-11-26T21:47:36.566Z,5.05
2022-11-26T21:50:48.297Z,5.00
2022-11-26T21:54:01.843Z,4.94
2022-11-26T21:57:13.670Z,4.89
2022-11-26T22:00:26.615Z,4.91
2022-11-26T22:03:38.991Z,4.84
2022-11-26T22:06:53.255Z,4.82
2022-11-26T22:10:05.200Z,4.81
2022-11-26T22:13:16.962Z,4.79
2022-11-26T22:16:31.412Z,4.82
2022-11-26T22:19:43.138Z,4.72
2022-11-26T22:22:54.846Z,4.71
2022-11-26T22:26:06.932Z,4.73
2022-11-26T22:29:21.627Z,4.65
2022-11-26T22:32:33.533Z,4.67
2022-11-26T22:35:45.876Z,4.67
2022-11-26T22:38:58.737Z,4.70
2022-11-26T22:42:10.919Z,4.64
2022-11-26T22:45:23.354Z,4.64
2022-11-26T22:48:35.176Z,4.59
2022-11-26T22:51:47.866Z,4.60
2022-11-26T22:54:59.601Z,4.59
2022-11-26T22:58:11.560Z,4.59
2022-11-26T23:01:30.282Z,4.59
2022-11-26T23:04:42.229Z,4.55
2022-11-26T23:07:54.097Z,4.51
2022-11-26T23:11:10.656Z,4.52
2022-11-26T23:14:22.374Z,4.52
2022-11-26T23:17:34.436Z,4.54
2022-11-26T23:20:47.252Z,4.51
2022-11-26T23:23:59.615Z,4.49
2022-11-26T23:27:11.256Z,4.45
2022-11-26T23:30:24.582Z,4.40
2022-11-26T23:33:37.349Z,4.38
2022-11-26T23:36:49.105Z,4.38
2022-11-26T23:40:01.006Z,4.43
2022-11-26T23:43:12.757Z,4.40
2022-11-26T23:46:28.106Z,4.38
2022-11-26T23:49:40.226Z,4.40
2022-11-26T23:52:52.198Z,4.37
2022-11-26T23:56:10.087Z,4.35
2022-11-26T23:59:22.531Z,4.36
